Time;durP1;ratioP1;P1;durP2;ratioP2;P2;SDS_P1;SDS_P2;PMS_P1;PMS_P2;Temp;Humidity;BMP_temperature;BMP_pressure;BME280_temperature;BME280_humidity;BME280_pressure;Samples;Min_cycle;Max_cycle;Signal;HPM_P1;HPM_P2
2022/05/20 00:02:22;;;;;;;36.63;33.53;;;17.10;99.90;;;;;;5116130;28;20450;-78
2022/05/20 00:04:50;;;;;;;34.93;31.90;;;17.10;99.90;;;;;;5113915;28;20435;-75
2022/05/20 00:07:19;;;;;;;33.67;30.77;;;17.00;99.90;;;;;;5114749;28;20450;-76
2022/05/20 00:09:47;;;;;;;31.30;28.50;;;17.00;99.90;;;;;;5114845;28;20479;-76
2022/05/20 00:12:15;;;;;;;31.77;29.27;;;16.90;99.90;;;;;;5113418;28;20558;-77
2022/05/20 00:14:44;;;;;;;28.87;26.77;;;16.90;99.90;;;;;;5114897;28;20410;-76
2022/05/20 00:17:13;;;;;;;28.77;26.50;;;16.80;99.90;;;;;;5114070;28;20464;-76
2022/05/20 00:19:41;;;;;;;28.00;25.70;;;16.80;99.90;;;;;;5113050;28;20824;-75
2022/05/20 00:22:11;;;;;;;29.00;26.73;;;16.70;99.90;;;;;;5112661;28;20471;-76
2022/05/20 00:25:45;;;;;;;29.80;27.10;;;16.70;99.90;;;;;;5112740;28;20808;-76
2022/05/20 00:27:27;;;;;;;29.90;27.33;;;16.70;99.90;;;;;;5113919;28;20422;-76
2022/05/20 00:29:59;;;;;;;31.50;28.60;;;16.70;99.90;;;;;;5113038;28;20501;-76
2022/05/20 00:32:27;;;;;;;30.47;27.80;;;16.70;99.90;;;;;;5113964;28;20550;-76
2022/05/20 00:34:55;;;;;;;30.60;28.20;;;16.60;99.90;;;;;;5112707;28;20417;-76
2022/05/20 00:37:24;;;;;;;32.17;29.77;;;16.60;99.90;;;;;;5112414;28;20979;-76
2022/05/20 00:39:52;;;;;;;31.47;29.07;;;16.60;99.90;;;;;;5112545;28;20450;-76
2022/05/20 00:42:20;;;;;;;28.37;26.10;;;16.60;99.90;;;;;;5112393;28;20450;-76
2022/05/20 00:44:48;;;;;;;29.83;27.43;;;16.60;99.90;;;;;;5112916;28;20443;-76
2022/05/20 00:47:18;;;;;;;29.43;27.10;;;16.50;99.90;;;;;;5114027;28;20457;-75
2022/05/20 00:49:49;;;;;;;29.33;26.90;;;16.50;99.90;;;;;;5112805;28;20426;-77
2022/05/20 00:52:22;;;;;;;28.27;25.97;;;16.50;99.90;;;;;;5112756;28;20433;-76
2022/05/20 00:54:55;;;;;;;28.77;26.17;;;16.50;99.90;;;;;;5112511;28;20414;-76
2022/05/20 00:57:28;;;;;;;27.63;25.53;;;16.50;99.90;;;;;;5113009;28;20440;-76
2022/05/20 01:00:02;;;;;;;28.87;26.23;;;16.50;99.90;;;;;;5112790;28;20439;-77
2022/05/20 01:02:34;;;;;;;28.03;25.70;;;16.40;99.90;;;;;;5112667;28;20999;-76
2022/05/20 01:05:03;;;;;;;29.37;26.80;;;16.40;99.90;;;;;;5114430;28;20408;-76
2022/05/20 01:07:37;;;;;;;28.90;26.70;;;16.40;99.90;;;;;;5112993;28;20851;-77
2022/05/20 01:10:06;;;;;;;25.03;23.13;;;16.30;99.90;;;;;;5112815;28;20489;-76
2022/05/20 01:12:35;;;;;;;25.50;23.60;;;16.30;99.90;;;;;;5113815;28;20517;-76
2022/05/20 01:15:04;;;;;;;22.30;20.60;;;16.30;99.90;;;;;;5113355;28;20940;-76
2022/05/20 01:17:34;;;;;;;21.30;19.53;;;16.30;99.90;;;;;;5113740;28;20439;-76
2022/05/20 01:20:08;;;;;;;20.57;18.93;;;16.20;99.90;;;;;;5114027;28;20889;-77
2022/05/20 01:22:48;;;;;;;20.80;18.90;;;16.20;99.90;;;;;;5112035;28;20442;-75
2022/05/20 01:25:17;;;;;;;20.23;18.80;;;16.10;99.90;;;;;;5112233;28;20414;-76
2022/05/20 01:27:46;;;;;;;19.30;17.90;;;16.10;99.90;;;;;;5113571;28;20436;-76
2022/05/20 01:30:17;;;;;;;19.97;18.33;;;16.10;99.90;;;;;;5113380;28;20530;-76
2022/05/20 01:32:45;;;;;;;17.17;15.77;;;16.10;99.90;;;;;;5112052;28;20517;-76
2022/05/20 01:35:17;;;;;;;16.50;15.10;;;16.10;99.90;;;;;;5114140;28;20443;-76
2022/05/20 01:37:47;;;;;;;14.97;13.73;;;16.00;99.90;;;;;;5111967;28;20526;-76
2022/05/20 01:40:15;;;;;;;13.87;12.60;;;16.00;99.90;;;;;;5112239;28;20483;-77
2022/05/20 01:42:51;;;;;;;14.00;12.70;;;16.00;99.90;;;;;;5111991;28;20558;-76
2022/05/20 01:45:27;;;;;;;14.07;12.90;;;16.00;99.90;;;;;;5112200;28;20406;-76
2022/05/20 01:48:02;;;;;;;13.60;12.60;;;16.00;99.90;;;;;;5113292;28;20871;-76
2022/05/20 01:50:36;;;;;;;12.67;11.57;;;15.90;99.90;;;;;;5115281;28;20470;-76
2022/05/20 01:53:11;;;;;;;13.60;12.60;;;15.90;99.90;;;;;;5115670;28;20438;-77
2022/05/20 01:55:46;;;;;;;14.27;12.87;;;15.90;99.90;;;;;;5117404;28;20427;-77
2022/05/20 01:58:19;;;;;;;14.00;12.83;;;15.90;99.90;;;;;;5115892;28;20874;-76
2022/05/20 02:00:50;;;;;;;13.43;12.37;;;15.90;99.90;;;;;;5118598;28;20414;-78
2022/05/20 02:03:22;;;;;;;14.03;12.83;;;15.90;99.90;;;;;;5118569;28;20442;-79
2022/05/20 02:05:54;;;;;;;14.07;12.90;;;15.80;99.90;;;;;;5117974;28;20821;-79
2022/05/20 02:08:29;;;;;;;15.73;14.50;;;15.80;99.90;;;;;;5120992;28;20410;-79
2022/05/20 02:11:02;;;;;;;14.00;12.80;;;15.80;99.90;;;;;;5117127;28;20409;-78
2022/05/20 02:13:33;;;;;;;13.13;12.03;;;15.80;99.90;;;;;;5117089;28;20845;-76
2022/05/20 02:16:07;;;;;;;14.67;13.57;;;15.80;99.90;;;;;;5116766;28;20436;-76
2022/05/20 02:18:41;;;;;;;13.77;12.57;;;15.70;99.90;;;;;;5117870;27;20420;-78
2022/05/20 02:21:14;;;;;;;14.30;13.20;;;15.70;99.90;;;;;;5117201;28;20449;-76
2022/05/20 02:23:48;;;;;;;13.80;12.60;;;15.70;99.90;;;;;;5118573;28;20817;-79
2022/05/20 02:26:20;;;;;;;13.60;12.50;;;15.70;99.90;;;;;;5116859;28;20414;-76
2022/05/20 02:28:55;;;;;;;13.83;12.80;;;15.60;99.90;;;;;;5118429;28;20418;-78
2022/05/20 02:31:26;;;;;;;13.27;12.27;;;15.60;99.90;;;;;;5118041;28;20442;-78
2022/05/20 02:33:54;;;;;;;13.87;12.70;;;15.50;99.90;;;;;;5116413;28;20418;-76
2022/05/20 02:36:25;;;;;;;14.60;13.30;;;15.50;99.90;;;;;;5115917;28;20546;-76
2022/05/20 02:38:55;;;;;;;11.67;9.97;;;15.50;99.90;;;;;;5116050;28;20470;-76
2022/05/20 02:41:25;;;;;;;10.70;9.70;;;15.50;99.90;;;;;;5116421;28;20946;-77
2022/05/20 02:43:53;;;;;;;9.37;8.60;;;15.40;99.90;;;;;;5114780;28;20477;-76
2022/05/20 02:46:21;;;;;;;10.13;9.33;;;15.40;99.90;;;;;;5116364;28;20418;-77
2022/05/20 02:48:49;;;;;;;10.77;9.03;;;15.30;99.90;;;;;;5114810;28;20447;-77
2022/05/20 02:51:17;;;;;;;9.73;9.00;;;15.30;99.90;;;;;;5114401;28;20492;-76
2022/05/20 02:53:47;;;;;;;8.93;8.13;;;15.30;99.90;;;;;;5114381;28;20907;-76
2022/05/20 02:56:16;;;;;;;9.70;8.70;;;15.20;99.90;;;;;;5115967;28;20443;-77
2022/05/20 03:04:15;;;;;;;8.50;7.70;;;15.10;99.90;;;;;;5116445;28;20461;-77
2022/05/20 03:06:46;;;;;;;8.20;7.60;;;15.00;99.90;;;;;;5116193;28;20429;-77
2022/05/20 03:09:18;;;;;;;7.70;7.00;;;15.00;99.90;;;;;;5116133;28;20903;-77
2022/05/20 03:11:48;;;;;;;7.70;7.00;;;15.00;99.90;;;;;;5116101;28;20561;-77
2022/05/20 03:14:18;;;;;;;7.10;6.43;;;15.00;99.90;;;;;;5116090;28;20433;-77
2022/05/20 03:16:47;;;;;;;6.77;6.17;;;15.00;99.90;;;;;;5117409;28;20928;-77
2022/05/20 03:19:15;;;;;;;7.17;6.53;;;14.90;99.90;;;;;;5115290;28;20447;-77
2022/05/20 03:21:43;;;;;;;7.07;6.50;;;14.90;99.90;;;;;;5115372;28;20961;-77
2022/05/20 03:24:12;;;;;;;6.97;6.37;;;14.90;99.90;;;;;;5117595;28;20470;-77
2022/05/20 03:26:41;;;;;;;6.57;6.07;;;14.90;99.90;;;;;;5115361;28;20469;-77
2022/05/20 03:29:11;;;;;;;6.67;5.90;;;14.80;99.90;;;;;;5117098;28;20428;-77
2022/05/20 03:31:40;;;;;;;6.97;5.83;;;14.80;99.90;;;;;;5117098;28;20884;-77
2022/05/20 03:34:09;;;;;;;7.03;6.43;;;14.80;99.90;;;;;;5116655;28;20442;-77
2022/05/20 03:36:39;;;;;;;6.20;5.60;;;14.70;99.90;;;;;;5115079;28;20483;-77
2022/05/20 03:39:09;;;;;;;5.87;5.37;;;14.80;99.90;;;;;;5115126;28;20430;-77
2022/05/20 03:41:38;;;;;;;6.77;5.90;;;14.80;99.90;;;;;;5117244;28;20434;-77
2022/05/20 03:44:09;;;;;;;6.37;5.77;;;14.70;99.90;;;;;;5116231;27;20474;-77
2022/05/20 03:46:42;;;;;;;5.83;5.43;;;14.70;99.90;;;;;;5115205;28;20452;-77
2022/05/20 03:49:10;;;;;;;7.07;6.23;;;14.80;99.90;;;;;;5115033;28;20450;-77
2022/05/20 03:51:38;;;;;;;6.63;6.13;;;14.70;99.90;;;;;;5116483;28;20510;-77
2022/05/20 03:54:07;;;;;;;7.37;6.67;;;14.70;99.90;;;;;;5115217;28;20464;-77
2022/05/20 03:56:35;;;;;;;7.10;6.40;;;14.70;99.90;;;;;;5116704;28;20446;-77
2022/05/20 03:59:03;;;;;;;6.30;5.80;;;14.60;99.90;;;;;;5114820;28;20501;-77
2022/05/20 04:04:20;;;;;;;6.50;5.90;;;14.60;99.90;;;;;;5114917;28;20444;-77
2022/05/20 04:06:49;;;;;;;9.70;7.20;;;14.60;99.90;;;;;;5115866;28;20943;-77
2022/05/20 04:09:17;;;;;;;6.73;6.17;;;14.60;99.90;;;;;;5114803;28;20483;-77
2022/05/20 04:11:49;;;;;;;6.53;5.93;;;14.60;99.90;;;;;;5113730;28;20475;-77
2022/05/20 04:14:17;;;;;;;6.23;5.73;;;14.60;99.90;;;;;;5113401;28;20509;-77
2022/05/20 04:16:46;;;;;;;7.97;7.20;;;14.60;99.90;;;;;;5113298;28;20449;-76
2022/05/20 04:19:14;;;;;;;6.60;5.90;;;14.60;99.90;;;;;;5112846;28;20451;-76
2022/05/20 04:21:43;;;;;;;7.07;6.40;;;14.60;99.90;;;;;;5112823;28;20474;-76
2022/05/20 04:24:11;;;;;;;7.33;6.63;;;14.60;99.90;;;;;;5114221;28;20438;-76
2022/05/20 04:26:40;;;;;;;6.60;6.00;;;14.60;99.90;;;;;;5112728;28;20429;-76
2022/05/20 04:29:08;;;;;;;6.90;6.30;;;14.60;99.90;;;;;;5114250;28;20471;-76
2022/05/20 04:31:37;;;;;;;6.90;5.70;;;14.50;99.90;;;;;;5112510;28;20459;-76
2022/05/20 04:34:06;;;;;;;6.43;5.83;;;14.50;99.90;;;;;;5112611;28;20455;-76
2022/05/20 04:36:34;;;;;;;7.20;6.60;;;14.50;99.90;;;;;;5112648;28;20477;-76
2022/05/20 04:39:04;;;;;;;7.30;6.40;;;14.50;99.90;;;;;;5113581;28;20463;-76
2022/05/20 04:47:09;;;;;;;6.83;6.23;;;14.50;99.90;;;;;;5112540;28;20516;-76
2022/05/20 04:49:42;;;;;;;7.90;7.10;;;14.50;99.90;;;;;;5112508;28;20452;-76
2022/05/20 04:52:10;;;;;;;7.70;6.90;;;14.60;99.90;;;;;;5112457;28;20541;-76
2022/05/20 04:54:52;;;;;;;7.30;6.77;;;14.50;99.90;;;;;;5112411;28;20425;-76
2022/05/20 04:57:27;;;;;;;9.10;7.03;;;14.50;99.90;;;;;;5112437;28;20439;-76
2022/05/20 05:00:03;;;;;;;7.70;7.10;;;14.60;99.90;;;;;;5113668;28;20431;-76
2022/05/20 05:02:38;;;;;;;7.53;6.90;;;14.50;99.90;;;;;;5114778;28;20801;-76
2022/05/20 05:05:10;;;;;;;7.13;6.53;;;14.60;99.90;;;;;;5112373;28;20521;-76
2022/05/20 05:07:39;;;;;;;7.70;6.90;;;14.60;99.90;;;;;;5112545;28;20495;-76
2022/05/20 05:10:16;;;;;;;7.37;6.63;;;14.60;99.90;;;;;;5113054;28;20437;-78
2022/05/20 05:12:48;;;;;;;8.20;7.40;;;14.60;99.90;;;;;;5114784;28;21012;-77
2022/05/20 05:15:35;;;;;;;9.30;6.77;;;14.60;99.90;;;;;;5114047;28;20431;-76
2022/05/20 05:18:21;;;;;;;6.40;5.90;;;14.60;99.90;;;;;;5113057;28;20416;-76
2022/05/20 05:20:52;;;;;;;6.87;6.27;;;14.60;99.90;;;;;;5112642;28;20451;-76
2022/05/20 05:23:21;;;;;;;7.43;6.80;;;14.60;99.90;;;;;;5112143;28;20490;-76
2022/05/20 05:25:51;;;;;;;7.50;6.90;;;14.70;99.90;;;;;;5116139;28;20445;-76
2022/05/20 05:28:20;;;;;;;8.03;7.33;;;14.70;99.90;;;;;;5117745;28;20410;-76
2022/05/20 05:30:50;;;;;;;7.90;7.20;;;14.70;99.90;;;;;;5116558;28;20435;-76
2022/05/20 05:33:21;;;;;;;7.53;6.83;;;14.80;99.90;;;;;;5116286;28;20447;-76
2022/05/20 05:35:50;;;;;;;8.23;7.53;;;14.80;99.90;;;;;;5116179;28;20446;-77
2022/05/20 05:38:29;;;;;;;9.73;8.67;;;14.90;99.90;;;;;;5115941;28;20512;-78
2022/05/20 05:40:59;;;;;;;9.20;8.30;;;15.00;99.90;;;;;;5115775;28;20542;-77
2022/05/20 05:43:37;;;;;;;7.70;7.10;;;15.20;99.90;;;;;;5115737;28;20431;-76
2022/05/20 05:46:05;;;;;;;8.33;7.33;;;15.30;99.90;;;;;;5084873;22;20465;-76
2022/05/20 05:48:33;;;;;;;7.53;6.83;;;15.50;99.90;;;;;;5036420;28;20451;-76
2022/05/20 05:51:03;;;;;;;7.43;6.73;;;15.60;99.90;;;;;;5034918;28;20560;-76
2022/05/20 05:53:32;;;;;;;12.70;7.10;;;15.80;99.90;;;;;;5036493;28;20402;-76
2022/05/20 05:56:04;;;;;;;8.93;6.60;;;15.90;99.90;;;;;;5035016;28;20443;-76
2022/05/20 05:58:33;;;;;;;6.70;6.20;;;16.00;99.90;;;;;;5035094;28;20493;-76
2022/05/20 06:01:02;;;;;;;7.20;6.57;;;16.30;99.90;;;;;;5036538;28;20424;-76
2022/05/20 06:03:31;;;;;;;7.03;6.43;;;16.50;99.90;;;;;;5034929;28;20418;-76
2022/05/20 06:05:59;;;;;;;10.00;7.80;;;16.50;99.90;;;;;;5034690;28;20962;-76
2022/05/20 06:08:28;;;;;;;6.83;6.13;;;16.50;99.90;;;;;;5035992;28;20410;-76
2022/05/20 06:11:01;;;;;;;8.03;6.40;;;16.60;99.90;;;;;;5034752;28;20432;-76
2022/05/20 06:13:31;;;;;;;7.73;6.77;;;16.80;99.90;;;;;;5034610;28;20451;-76
2022/05/20 06:15:59;;;;;;;6.70;6.00;;;16.80;99.90;;;;;;5034604;28;20455;-76
2022/05/20 06:18:28;;;;;;;6.50;6.00;;;16.80;99.90;;;;;;5035403;28;20451;-76
2022/05/20 06:20:57;;;;;;;6.97;6.37;;;16.80;99.90;;;;;;5035681;28;20439;-76
2022/05/20 06:23:25;;;;;;;6.57;5.47;;;16.80;99.90;;;;;;5034355;28;20422;-76
2022/05/20 06:25:55;;;;;;;6.00;5.50;;;16.80;99.90;;;;;;5035578;28;20783;-76
2022/05/20 06:28:47;;;;;;;6.70;6.07;;;16.80;99.90;;;;;;5034510;28;20458;-75
2022/05/20 06:31:16;;;;;;;6.00;5.50;;;16.80;99.90;;;;;;5034313;28;20442;-76
2022/05/20 06:33:44;;;;;;;6.80;5.17;;;16.90;99.90;;;;;;5034412;28;20485;-76
2022/05/20 06:41:44;;;;;;;7.57;5.50;;;16.90;99.90;;;;;;5034065;28;21003;-76
2022/05/20 06:44:15;;;;;;;6.33;5.73;;;17.10;99.90;;;;;;5034040;28;20541;-76
2022/05/20 06:46:46;;;;;;;6.13;4.30;;;17.30;99.90;;;;;;5035164;28;20946;-76
2022/05/20 06:49:14;;;;;;;6.10;5.50;;;17.70;99.90;;;;;;5034089;28;20512;-76
2022/05/20 06:51:43;;;;;;;5.50;4.77;;;18.10;99.90;;;;;;5035336;28;20542;-75
2022/05/20 06:54:12;;;;;;;4.40;4.00;;;18.30;99.90;;;;;;5035374;28;20453;-76
2022/05/20 06:56:44;;;;;;;5.10;4.10;;;18.70;99.90;;;;;;5033966;28;20971;-76
2022/05/20 06:59:15;;;;;;;5.10;4.70;;;18.90;99.90;;;;;;5033896;28;20451;-77
2022/05/20 07:01:44;;;;;;;5.37;4.60;;;19.20;99.90;;;;;;5033703;28;20471;-76
2022/05/20 07:04:41;;;;;;;5.23;3.73;;;19.30;99.90;;;;;;5034260;28;20522;-76
2022/05/20 07:07:17;;;;;;;6.70;4.50;;;19.10;99.90;;;;;;5034137;28;21067;-76
2022/05/20 07:09:52;;;;;;;4.40;3.93;;;19.00;99.90;;;;;;5034345;28;20452;-78
2022/05/20 07:12:34;;;;;;;4.40;4.00;;;18.80;99.90;;;;;;5035022;28;20533;-78
2022/05/20 07:15:11;;;;;;;5.47;3.70;;;18.70;99.90;;;;;;5035612;28;20453;-78
2022/05/20 07:17:50;;;;;;;4.23;3.20;;;18.60;99.90;;;;;;5035206;28;20561;-78
2022/05/20 07:20:24;;;;;;;4.77;3.10;;;18.60;99.90;;;;;;5036230;28;20538;-78
2022/05/20 07:22:55;;;;;;;4.87;3.37;;;18.80;99.90;;;;;;5036672;28;20491;-77
2022/05/20 07:25:33;;;;;;;4.90;3.40;;;19.00;99.90;;;;;;5035973;28;20458;-78
2022/05/20 07:28:06;;;;;;;4.87;3.03;;;19.20;99.90;;;;;;5038126;28;20426;-80
2022/05/20 07:30:36;;;;;;;4.53;3.43;;;19.50;99.90;;;;;;5038115;28;20482;-79
2022/05/20 07:33:07;;;;;;;4.83;4.43;;;19.60;99.90;;;;;;5036256;28;20554;-78
2022/05/20 07:35:55;;;;;;;5.50;3.93;;;19.60;99.90;;;;;;5036198;28;20475;-77
2022/05/20 07:39:07;;;;;;;5.83;3.80;;;19.50;99.90;;;;;;5036044;28;20481;-78
2022/05/20 07:41:42;;;;;;;4.70;3.77;;;19.30;99.90;;;;;;5035158;28;20470;-78
2022/05/20 07:44:10;;;;;;;5.00;3.70;;;19.30;99.90;;;;;;5035230;28;20447;-77
2022/05/20 07:47:10;;;;;;;5.50;3.50;;;19.20;99.90;;;;;;5034225;28;20480;-78
2022/05/20 07:50:05;;;;;;;4.60;3.87;;;19.00;99.90;;;;;;5035518;28;20454;-77
2022/05/20 07:55:49;;;;;;;5.27;3.63;;;19.00;99.90;;;;;;5036720;28;20427;-78
2022/05/20 07:58:48;;;;;;;4.30;3.00;;;19.00;99.90;;;;;;5035464;28;20497;-78
2022/05/20 08:01:27;;;;;;;5.13;3.67;;;19.30;99.90;;;;;;5034190;28;20486;-77
2022/05/20 08:07:13;;;;;;;5.00;3.10;;;19.70;99.90;;;;;;5034396;28;20516;-78
2022/05/20 08:09:45;;;;;;;4.20;3.40;;;19.90;99.90;;;;;;5034825;28;20482;-78
2022/05/20 08:12:13;;;;;;;3.50;3.07;;;19.90;99.90;;;;;;5035782;28;20558;-78
2022/05/20 08:14:48;;;;;;;7.27;4.03;;;19.80;99.90;;;;;;5034205;28;20443;-78
2022/05/20 08:17:19;;;;;;;4.30;3.13;;;19.70;99.70;;;;;;5035927;28;20522;-78
2022/05/20 08:19:51;;;;;;;5.47;3.37;;;19.60;99.60;;;;;;5035524;28;20454;-77
2022/05/20 08:22:22;;;;;;;5.10;3.80;;;19.60;99.70;;;;;;5036587;28;20446;-78
2022/05/20 08:24:53;;;;;;;5.20;3.33;;;19.50;99.60;;;;;;5035793;28;20481;-77
2022/05/20 08:27:22;;;;;;;4.27;3.23;;;19.60;99.50;;;;;;5034545;28;20544;-78
2022/05/20 08:29:51;;;;;;;3.80;3.13;;;19.70;99.40;;;;;;5035350;28;20439;-77
2022/05/20 08:32:26;;;;;;;6.10;3.10;;;20.00;99.50;;;;;;5034929;28;21010;-79
2022/05/20 08:34:56;;;;;;;3.20;2.53;;;20.20;99.30;;;;;;5034667;28;20442;-78
2022/05/20 08:37:24;;;;;;;3.47;2.40;;;20.40;99.30;;;;;;5034182;28;20486;-77
2022/05/20 08:39:52;;;;;;;4.77;2.60;;;20.60;99.20;;;;;;5033826;28;20870;-78
2022/05/20 08:42:30;;;;;;;4.87;3.27;;;20.80;99.10;;;;;;5033560;28;20479;-77
2022/05/20 08:45:00;;;;;;;5.03;4.53;;;21.10;99.10;;;;;;5034816;28;20522;-77
2022/05/20 08:47:38;;;;;;;4.97;4.43;;;21.20;98.90;;;;;;5033487;28;20463;-77
2022/05/20 08:50:13;;;;;;;9.17;5.80;;;21.40;98.60;;;;;;5033242;28;20445;-77
2022/05/20 08:52:46;;;;;;;6.20;4.63;;;21.60;98.50;;;;;;5033133;28;20521;-77
2022/05/20 08:55:14;;;;;;;4.37;3.97;;;21.70;98.40;;;;;;5033572;28;20474;-77
2022/05/20 08:57:49;;;;;;;4.50;4.00;;;21.80;98.40;;;;;;5034687;28;20545;-78
2022/05/20 09:00:18;;;;;;;5.93;5.10;;;21.90;98.30;;;;;;5037545;28;20449;-78
2022/05/20 09:02:49;;;;;;;10.50;4.60;;;22.00;98.10;;;;;;5037717;28;20502;-77
2022/05/20 09:05:23;;;;;;;13.27;4.40;;;22.10;97.80;;;;;;5037578;28;20443;-78
2022/05/20 09:07:58;;;;;;;14.23;10.97;;;22.20;97.70;;;;;;5037447;28;20972;-77
2022/05/20 09:10:32;;;;;;;5.70;5.00;;;22.30;97.70;;;;;;5036257;28;20817;-77
2022/05/20 09:13:13;;;;;;;7.10;6.00;;;22.40;97.70;;;;;;5037493;28;20494;-76
2022/05/20 09:15:44;;;;;;;7.03;6.43;;;22.50;97.60;;;;;;5037766;28;20494;-77
2022/05/20 09:18:17;;;;;;;6.07;5.30;;;22.60;97.60;;;;;;5036045;28;20438;-77
2022/05/20 09:20:53;;;;;;;9.90;9.27;;;22.70;97.70;;;;;;5035869;28;20526;-76
2022/05/20 09:23:24;;;;;;;9.23;8.63;;;22.80;97.30;;;;;;5036504;28;20490;-76
2022/05/20 09:26:02;;;;;;;10.33;9.73;;;22.90;97.30;;;;;;5035778;28;20956;-76
2022/05/20 09:28:37;;;;;;;9.00;8.30;;;22.90;96.90;;;;;;5035877;28;20545;-76
2022/05/20 09:31:16;;;;;;;9.40;8.80;;;22.90;96.80;;;;;;5035774;28;20450;-76
2022/05/20 09:33:52;;;;;;;8.77;8.07;;;22.90;96.50;;;;;;5035763;28;20454;-76
2022/05/20 09:36:35;;;;;;;9.40;8.67;;;22.90;96.50;;;;;;5035702;28;20449;-76
2022/05/20 09:39:17;;;;;;;7.60;6.90;;;22.90;96.20;;;;;;5035863;28;20439;-76
2022/05/20 09:41:48;;;;;;;7.50;6.90;;;22.90;96.20;;;;;;5035686;28;20498;-76
2022/05/20 09:44:22;;;;;;;8.00;7.50;;;23.00;96.00;;;;;;5035945;28;20546;-76
2022/05/20 09:47:01;;;;;;;7.67;6.97;;;23.00;96.00;;;;;;5035564;28;20540;-76
2022/05/20 09:49:41;;;;;;;9.20;8.30;;;22.90;95.70;;;;;;5035579;28;20449;-76
2022/05/20 09:52:24;;;;;;;8.93;8.33;;;22.90;95.60;;;;;;5035493;28;21020;-76
2022/05/20 09:55:01;;;;;;;9.07;8.37;;;23.00;95.70;;;;;;5035691;28;20542;-76
2022/05/20 09:57:37;;;;;;;8.77;8.17;;;23.10;95.70;;;;;;5036866;28;20847;-76
2022/05/20 10:00:11;;;;;;;8.27;7.67;;;23.30;95.70;;;;;;5037035;28;20427;-76
2022/05/20 10:02:46;;;;;;;8.67;7.97;;;23.30;95.40;;;;;;5035390;28;20475;-76
2022/05/20 10:05:21;;;;;;;9.00;8.40;;;23.40;95.10;;;;;;5036772;28;20430;-76
2022/05/20 10:08:18;;;;;;;8.03;7.33;;;23.40;95.10;;;;;;5035514;28;20565;-76
2022/05/20 10:11:13;;;;;;;8.70;8.10;;;23.50;94.90;;;;;;5017651;28;20482;-78
2022/05/20 10:13:49;;;;;;;8.63;8.00;;;23.40;94.40;;;;;;5036609;28;20537;-76
2022/05/20 10:16:31;;;;;;;9.50;8.70;;;23.40;94.90;;;;;;5036460;28;20423;-77
2022/05/20 10:19:11;;;;;;;8.97;8.37;;;23.40;95.00;;;;;;5035045;28;20534;-76
2022/05/20 10:21:51;;;;;;;9.30;8.60;;;23.50;95.10;;;;;;5036369;28;20466;-76
2022/05/20 10:24:46;;;;;;;8.33;7.83;;;23.60;94.90;;;;;;5034825;28;20431;-76
2022/05/20 10:27:24;;;;;;;7.53;6.93;;;23.70;94.70;;;;;;5036452;28;20550;-76
2022/05/20 10:32:53;;;;;;;7.50;6.90;;;23.70;94.60;;;;;;5034513;28;20529;-76
2022/05/20 10:35:24;;;;;;;8.30;7.80;;;23.80;94.50;;;;;;5035919;28;20419;-76
2022/05/20 10:38:11;;;;;;;7.53;6.83;;;23.80;94.30;;;;;;5036122;28;20760;-76
2022/05/20 10:40:52;;;;;;;5.60;5.10;;;23.80;94.30;;;;;;5035767;28;20422;-76
2022/05/20 10:43:30;;;;;;;5.67;5.17;;;23.80;94.20;;;;;;5034458;28;20493;-76
2022/05/20 10:49:13;;;;;;;7.23;6.57;;;24.00;94.10;;;;;;5034240;28;20972;-76
2022/05/20 10:52:07;;;;;;;6.00;5.53;;;24.00;93.90;;;;;;5033907;28;20466;-76
2022/05/20 10:55:09;;;;;;;5.43;5.00;;;24.10;93.50;;;;;;5035110;28;20423;-76
2022/05/20 10:58:01;;;;;;;5.33;4.83;;;24.10;93.30;;;;;;5035662;28;20450;-76
2022/05/20 11:00:45;;;;;;;5.80;5.40;;;24.10;93.30;;;;;;5033800;28;20447;-76
2022/05/20 11:03:38;;;;;;;6.83;6.23;;;24.10;93.20;;;;;;5033652;28;20467;-76
2022/05/20 11:06:39;;;;;;;8.53;6.03;;;24.10;93.10;;;;;;5035025;28;20420;-76
2022/05/20 11:09:08;;;;;;;5.93;5.43;;;24.00;92.80;;;;;;5035141;28;20537;-76
2022/05/20 11:11:57;;;;;;;6.57;5.97;;;24.00;93.00;;;;;;5035024;28;20455;-76
2022/05/20 11:15:00;;;;;;;5.90;5.30;;;24.00;92.60;;;;;;5033539;28;20455;-76
2022/05/20 11:17:57;;;;;;;5.83;5.33;;;23.90;92.40;;;;;;5034775;28;20784;-76
2022/05/20 11:20:48;;;;;;;5.93;5.40;;;23.90;92.30;;;;;;5034959;28;20427;-76
2022/05/20 11:23:44;;;;;;;6.40;5.80;;;23.90;92.50;;;;;;5033830;28;20467;-76
2022/05/20 11:26:36;;;;;;;5.80;5.20;;;23.90;92.50;;;;;;5026088;28;20450;-76
2022/05/20 11:29:38;;;;;;;4.87;4.47;;;24.00;92.40;;;;;;5034363;28;20466;-76
2022/05/20 11:32:09;;;;;;;6.53;5.27;;;24.00;92.30;;;;;;5034680;28;20494;-76
2022/05/20 11:34:54;;;;;;;5.63;5.13;;;24.00;92.30;;;;;;5033169;28;20525;-76
2022/05/20 11:37:44;;;;;;;5.57;5.00;;;24.00;92.40;;;;;;5033051;28;20967;-76
2022/05/20 11:40:29;;;;;;;5.50;5.10;;;24.10;92.50;;;;;;5033075;28;20569;-76
2022/05/20 11:43:18;;;;;;;5.50;5.00;;;24.20;92.60;;;;;;5034366;28;20517;-76
2022/05/20 11:45:57;;;;;;;4.87;4.47;;;24.30;92.60;;;;;;5032785;28;20512;-76
2022/05/20 11:48:52;;;;;;;4.87;4.37;;;24.30;92.40;;;;;;5034341;28;20534;-76
2022/05/20 11:51:41;;;;;;;5.80;4.30;;;24.30;92.00;;;;;;5034280;28;20972;-76
2022/05/20 11:54:14;;;;;;;4.57;4.17;;;24.30;92.00;;;;;;5032921;28;20435;-76
2022/05/20 11:56:47;;;;;;;3.97;3.57;;;24.30;91.90;;;;;;5032695;28;20446;-75
2022/05/20 11:59:19;;;;;;;6.00;5.50;;;24.40;91.90;;;;;;5032627;28;20443;-75
2022/05/20 12:01:52;;;;;;;5.80;4.00;;;24.40;92.00;;;;;;5032593;28;20475;-76
2022/05/20 12:04:22;;;;;;;4.60;3.87;;;24.40;92.00;;;;;;5032643;28;20501;-75
2022/05/20 12:07:00;;;;;;;4.67;3.80;;;24.50;92.10;;;;;;5032532;28;20439;-76
2022/05/20 12:09:35;;;;;;;3.70;3.40;;;24.50;92.00;;;;;;5032468;28;20465;-75
2022/05/20 12:12:24;;;;;;;3.63;3.33;;;24.60;91.90;;;;;;5033873;28;20460;-76
2022/05/20 12:15:08;;;;;;;10.10;9.03;;;24.70;91.90;;;;;;5034046;28;20496;-76
2022/05/20 12:17:39;;;;;;;3.83;3.53;;;24.70;91.70;;;;;;5032468;28;20481;-76
2022/05/20 12:26:27;;;;;;;4.20;3.80;;;24.70;91.20;;;;;;5033809;28;20502;-76
2022/05/20 12:28:59;;;;;;;4.17;3.77;;;24.70;91.10;;;;;;5033585;28;20465;-75
2022/05/20 12:31:49;;;;;;;3.73;3.43;;;24.70;91.00;;;;;;5032200;28;20603;-75
2022/05/20 12:34:41;;;;;;;4.40;3.30;;;24.70;90.60;;;;;;5033096;28;20894;-75
2022/05/20 12:37:17;;;;;;;4.03;2.70;;;24.60;90.20;;;;;;5033625;28;20423;-75
2022/05/20 12:39:48;;;;;;;5.13;2.53;;;24.60;90.10;;;;;;5032122;28;20553;-75
2022/05/20 12:42:23;;;;;;;3.30;2.60;;;24.50;89.70;;;;;;5032073;28;20525;-74
2022/05/20 12:44:56;;;;;;;3.33;3.03;;;24.50;88.90;;;;;;5033541;28;20773;-74
2022/05/20 12:47:31;;;;;;;2.73;2.40;;;24.40;88.80;;;;;;5032002;28;20442;-74
2022/05/20 12:50:08;;;;;;;4.03;2.20;;;24.40;88.40;;;;;;5033447;28;20504;-74
2022/05/20 12:52:46;;;;;;;5.80;2.30;;;24.40;87.80;;;;;;5031837;28;20897;-74
2022/05/20 12:55:20;;;;;;;3.37;3.07;;;24.40;87.60;;;;;;5033154;28;20419;-75
2022/05/20 12:57:51;;;;;;;2.90;2.60;;;24.40;87.50;;;;;;5033307;28;20455;-74
2022/05/20 13:00:28;;;;;;;3.47;3.17;;;24.40;87.30;;;;;;5031869;28;20449;-74
2022/05/20 13:03:00;;;;;;;4.73;3.40;;;24.30;87.40;;;;;;5031775;28;20477;-74
2022/05/20 13:05:35;;;;;;;4.47;3.57;;;24.30;87.60;;;;;;5031862;28;20435;-74
2022/05/20 13:08:15;;;;;;;4.83;3.77;;;24.20;87.80;;;;;;5033613;28;20455;-74
2022/05/20 13:10:44;;;;;;;3.70;3.30;;;24.20;88.10;;;;;;5033053;28;20421;-75
2022/05/20 13:13:17;;;;;;;3.93;3.63;;;24.20;88.50;;;;;;5031608;28;20475;-75
2022/05/20 13:15:49;;;;;;;3.70;2.80;;;24.20;88.70;;;;;;5033127;28;20914;-75
2022/05/20 13:18:24;;;;;;;3.50;3.20;;;24.20;88.80;;;;;;5033254;28;20451;-74
2022/05/20 13:20:58;;;;;;;3.80;2.80;;;24.20;87.90;;;;;;5032065;28;20889;-75
2022/05/20 13:23:39;;;;;;;3.90;3.60;;;24.20;87.60;;;;;;5032766;28;20538;-75
2022/05/20 13:26:18;;;;;;;3.03;2.50;;;24.20;87.60;;;;;;5032371;28;20485;-75
2022/05/20 13:28:46;;;;;;;3.33;2.47;;;24.20;87.10;;;;;;5034632;28;20554;-75
2022/05/20 13:31:21;;;;;;;2.40;2.20;;;24.20;87.30;;;;;;5033710;28;20839;-75
2022/05/20 13:33:50;;;;;;;8.40;2.40;;;24.20;87.10;;;;;;5033369;28;20431;-75
2022/05/20 13:36:34;;;;;;;2.23;2.03;;;24.20;87.10;;;;;;5031828;28;20521;-76
2022/05/20 13:39:04;;;;;;;2.37;2.17;;;24.30;86.40;;;;;;5031868;28;20446;-76
2022/05/20 13:41:34;;;;;;;2.43;2.23;;;24.30;85.60;;;;;;5033092;28;20994;-76
2022/05/20 13:44:05;;;;;;;3.80;2.50;;;24.40;85.80;;;;;;5031773;28;20501;-76
2022/05/20 13:49:22;;;;;;;2.30;1.97;;;24.30;85.00;;;;;;5036745;28;20460;-74
2022/05/20 13:51:54;;;;;;;2.70;2.37;;;24.20;85.00;;;;;;5035295;28;20524;-74
2022/05/20 13:54:26;;;;;;;2.77;2.13;;;24.20;85.00;;;;;;5036985;28;20509;-74
2022/05/20 13:56:56;;;;;;;3.70;2.03;;;24.20;85.20;;;;;;5035376;28;20473;-75
2022/05/20 13:59:32;;;;;;;3.60;1.80;;;24.10;85.40;;;;;;5036582;28;20438;-74
2022/05/20 14:02:10;;;;;;;2.53;2.33;;;24.10;85.70;;;;;;5036165;28;20458;-74